Time;durP1;ratioP1;P1;durP2;ratioP2;P2;SDS_P1;SDS_P2;PMS_P1;PMS_P2;Temp;Humidity;BMP_temperature;BMP_pressure;BME280_temperature;BME280_humidity;BME280_pressure;Samples;Min_cycle;Max_cycle;Signal;HPM_P1;HPM_P2
2022/01/28 00:00:00;;;;;;;1.37;1.37;;;3.60;99.90;;;;;;5004410;28;20460;-75
2022/01/28 00:05:28;;;;;;;1.25;1.25;;;3.60;99.90;;;;;;4953256;29;20027;-88
2022/01/28 00:07:55;;;;;;;2.15;2.05;;;3.50;99.90;;;;;;4958892;28;20458;-88
2022/01/28 00:10:22;;;;;;;1.63;1.52;;;3.50;99.90;;;;;;4952955;29;20027;-88
2022/01/28 00:13:05;;;;;;;8.60;2.38;;;3.50;99.90;;;;;;4952944;29;20032;-88
2022/01/28 00:38:26;;;;;;;3.95;2.53;;;3.30;99.90;;;;;;4952429;29;20119;-88
2022/01/28 00:40:17;;;;;;;3.05;1.70;;;3.30;99.90;;;;;;4987456;28;20503;-87
2022/01/28 00:42:43;;;;;;;2.35;2.15;;;3.20;99.90;;;;;;5011986;28;20120;-75
2022/01/28 00:45:09;;;;;;;1.25;1.23;;;3.20;99.90;;;;;;5012790;28;20077;-87
2022/01/28 00:47:35;;;;;;;1.45;1.42;;;3.20;99.90;;;;;;5010175;28;20034;-75
2022/01/28 00:50:00;;;;;;;9.63;2.42;;;3.20;99.90;;;;;;5018849;28;20014;-88
2022/01/28 00:52:26;;;;;;;0.40;0.40;;;3.10;99.90;;;;;;5001960;28;20057;-88
2022/01/28 00:54:52;;;;;;;2.97;2.78;;;3.10;99.90;;;;;;5015110;28;20034;-88
2022/01/28 00:57:18;;;;;;;3.65;2.88;;;3.10;99.90;;;;;;5016912;28;20516;-88
2022/01/28 00:59:44;;;;;;;1.98;1.88;;;3.10;99.90;;;;;;5023321;28;20057;-88
2022/01/28 01:02:09;;;;;;;5.13;3.28;;;3.00;99.90;;;;;;5015863;28;20026;-87
2022/01/28 01:04:35;;;;;;;3.83;2.90;;;3.00;99.90;;;;;;5007521;28;20026;-88
2022/01/28 01:07:01;;;;;;;1.60;1.50;;;3.00;99.90;;;;;;5012932;28;20096;-87
2022/01/28 01:09:27;;;;;;;1.70;1.60;;;3.00;99.90;;;;;;5019859;28;20401;-74
2022/01/28 01:11:53;;;;;;;0.90;0.88;;;3.10;99.90;;;;;;5014774;28;20041;-75
2022/01/28 01:14:18;;;;;;;1.27;1.02;;;3.10;99.90;;;;;;5016235;28;20030;-75
2022/01/28 01:19:33;;;;;;;3.95;2.22;;;3.10;99.90;;;;;;5016115;28;20071;-89
2022/01/28 01:22:00;;;;;;;1.95;1.85;;;3.10;99.90;;;;;;5016009;28;20113;-88
2022/01/28 01:24:29;;;;;;;2.72;1.70;;;3.10;99.90;;;;;;5015875;28;20403;-88
2022/01/28 01:26:59;;;;;;;2.05;1.80;;;3.10;99.90;;;;;;5016455;28;20047;-89
2022/01/28 01:29:24;;;;;;;1.73;1.63;;;3.10;99.90;;;;;;5015969;28;20049;-88
2022/01/28 01:31:50;;;;;;;5.47;3.20;;;3.00;99.90;;;;;;5015504;28;20056;-88
2022/01/28 01:34:20;;;;;;;1.77;1.65;;;3.00;99.90;;;;;;5018868;28;20405;-88
2022/01/28 01:36:46;;;;;;;4.63;2.28;;;3.10;99.90;;;;;;5015380;28;20029;-88
2022/01/28 01:39:19;;;;;;;2.35;2.15;;;3.00;99.90;;;;;;5008296;28;20029;-88
2022/01/28 01:41:52;;;;;;;0.63;0.63;;;3.00;99.90;;;;;;5015958;28;20022;-88
2022/01/28 01:44:48;;;;;;;1.08;1.00;;;3.10;99.90;;;;;;5020504;28;20081;-87
2022/01/28 01:52:45;;;;;;;5.95;3.45;;;3.10;99.90;;;;;;5012300;28;20025;-88
2022/01/28 01:55:11;;;;;;;1.20;1.20;;;3.20;99.90;;;;;;5019665;28;20037;-85
2022/01/28 01:57:38;;;;;;;3.22;1.55;;;3.20;99.90;;;;;;5010345;28;20509;-75
2022/01/28 02:00:06;;;;;;;0.40;0.40;;;3.20;99.90;;;;;;5015465;28;20026;-88
2022/01/28 02:02:32;;;;;;;1.42;1.33;;;3.20;99.90;;;;;;5012287;28;20043;-75
2022/01/28 02:04:58;;;;;;;1.02;1.02;;;3.20;99.90;;;;;;5014857;28;20448;-87
2022/01/28 02:07:25;;;;;;;2.65;2.38;;;3.20;99.90;;;;;;5014797;28;20501;-75
2022/01/28 02:09:51;;;;;;;2.10;1.85;;;3.20;99.90;;;;;;5014871;28;20527;-88
2022/01/28 02:12:17;;;;;;;1.88;1.77;;;3.20;99.90;;;;;;5014900;28;20022;-75
2022/01/28 02:14:42;;;;;;;1.98;1.85;;;3.20;99.90;;;;;;5014112;28;20111;-88
2022/01/28 02:17:11;;;;;;;1.23;1.13;;;3.20;99.90;;;;;;5004059;28;20392;-89
2022/01/28 02:19:38;;;;;;;1.88;1.77;;;3.20;99.90;;;;;;5013396;28;20540;-87
2022/01/28 02:22:04;;;;;;;2.17;1.88;;;3.30;99.90;;;;;;5015177;28;20022;-88
2022/01/28 02:24:37;;;;;;;3.13;2.60;;;3.40;99.90;;;;;;5013313;28;20080;-88
2022/01/28 02:27:03;;;;;;;4.03;1.27;;;3.40;99.90;;;;;;5017222;28;20108;-75
2022/01/28 02:29:32;;;;;;;4.43;1.33;;;3.40;99.90;;;;;;5015108;28;20056;-88
2022/01/28 02:32:01;;;;;;;3.10;2.90;;;3.40;99.90;;;;;;5014197;28;20053;-88
2022/01/28 02:34:27;;;;;;;2.03;1.65;;;3.40;99.90;;;;;;5011134;28;20056;-75
2022/01/28 02:36:55;;;;;;;2.30;2.15;;;3.50;99.90;;;;;;5030894;28;20026;-75
2022/01/28 02:39:21;;;;;;;3.63;2.55;;;3.50;99.90;;;;;;5011207;28;20469;-75
2022/01/28 02:41:50;;;;;;;0.55;0.55;;;3.50;99.90;;;;;;5010503;28;20101;-75
2022/01/28 02:44:37;;;;;;;1.45;1.38;;;3.50;99.90;;;;;;5014880;28;20057;-75
2022/01/28 02:47:04;;;;;;;1.80;1.70;;;3.50;99.90;;;;;;5025860;28;20084;-87
2022/01/28 02:49:36;;;;;;;3.33;3.00;;;3.50;99.90;;;;;;5010247;28;20022;-75
2022/01/28 02:52:03;;;;;;;43.08;2.33;;;3.60;99.90;;;;;;5014292;28;20389;-88
2022/01/28 02:54:30;;;;;;;1.40;1.30;;;3.60;99.90;;;;;;5014299;28;20042;-74
2022/01/28 02:57:01;;;;;;;1.10;1.10;;;3.60;99.90;;;;;;5010503;28;20440;-75
2022/01/28 02:59:27;;;;;;;1.05;1.02;;;3.60;99.90;;;;;;5014360;28;20050;-88
2022/01/28 03:01:53;;;;;;;1.67;1.58;;;3.60;99.90;;;;;;5012373;28;20076;-75
2022/01/28 03:07:10;;;;;;;4.47;1.17;;;3.60;99.90;;;;;;4987419;28;20461;-85
2022/01/28 03:09:50;;;;;;;0.82;0.82;;;3.70;99.90;;;;;;5013721;28;20054;-88
2022/01/28 03:12:18;;;;;;;2.15;1.98;;;3.70;99.90;;;;;;5014074;28;20082;-88
2022/01/28 03:15:26;;;;;;;1.25;1.17;;;3.80;99.90;;;;;;5013847;28;20030;-87
2022/01/28 03:22:46;;;;;;;1.83;1.73;;;3.80;99.90;;;;;;5006999;28;20018;-75
2022/01/28 03:25:14;;;;;;;2.15;2.05;;;3.80;99.90;;;;;;5012355;28;20492;-75
2022/01/28 03:30:14;;;;;;;1.17;1.02;;;3.80;99.90;;;;;;5013372;28;20452;-88
2022/01/28 03:32:40;;;;;;;2.20;2.08;;;3.80;99.90;;;;;;5016226;28;20026;-88
2022/01/28 03:35:06;;;;;;;3.25;3.05;;;3.90;99.90;;;;;;5014048;28;20073;-88
2022/01/28 03:37:31;;;;;;;3.55;2.30;;;3.90;99.90;;;;;;5011243;28;20033;-75
2022/01/28 03:39:57;;;;;;;1.95;1.85;;;4.00;99.90;;;;;;5010992;28;20444;-89
2022/01/28 03:42:23;;;;;;;1.83;1.73;;;4.00;99.90;;;;;;5014384;28;20489;-88
2022/01/28 03:44:48;;;;;;;2.95;2.28;;;4.00;99.90;;;;;;5014595;28;20026;-88
2022/01/28 03:47:14;;;;;;;2.22;2.05;;;4.10;99.90;;;;;;5013880;28;20026;-87
2022/01/28 03:49:40;;;;;;;2.60;2.22;;;4.00;99.90;;;;;;5009233;28;20033;-75
2022/01/28 03:52:05;;;;;;;0.95;0.95;;;4.10;99.90;;;;;;5013083;28;20060;-75
2022/01/28 03:54:31;;;;;;;1.65;1.55;;;4.10;99.90;;;;;;5013806;28;20022;-80
2022/01/28 03:56:57;;;;;;;4.55;3.25;;;4.00;99.90;;;;;;5006581;28;20511;-75
2022/01/28 03:59:26;;;;;;;4.45;3.17;;;4.10;99.90;;;;;;5013013;28;20156;-88
2022/01/28 04:01:51;;;;;;;0.68;0.68;;;4.10;99.90;;;;;;5007982;28;20022;-87
2022/01/28 04:12:40;;;;;;;3.53;2.63;;;4.10;99.90;;;;;;4971462;28;20019;-88
2022/01/28 04:15:21;;;;;;;4.35;3.30;;;4.10;99.90;;;;;;4969475;28;20454;-88
2022/01/28 04:17:48;;;;;;;1.80;1.60;;;4.20;99.90;;;;;;4988949;28;20040;-88
2022/01/28 04:20:14;;;;;;;4.32;2.72;;;4.20;99.90;;;;;;5013160;28;20543;-75
2022/01/28 04:22:40;;;;;;;5.10;2.42;;;4.20;99.90;;;;;;5004741;28;20019;-88
2022/01/28 04:25:06;;;;;;;5.25;2.75;;;4.20;99.90;;;;;;5024635;28;20042;-88
2022/01/28 04:27:32;;;;;;;4.32;1.58;;;4.20;99.90;;;;;;5012733;28;20022;-88
2022/01/28 04:29:57;;;;;;;0.75;0.75;;;4.20;99.90;;;;;;5017029;28;20512;-75
2022/01/28 04:32:25;;;;;;;7.15;3.08;;;4.20;99.90;;;;;;5016733;28;20018;-87
2022/01/28 04:34:53;;;;;;;2.15;1.25;;;4.20;99.90;;;;;;5023775;28;20061;-76
2022/01/28 04:45:14;;;;;;;2.00;1.55;;;4.20;99.90;;;;;;5021694;28;20041;-87
2022/01/28 04:47:55;;;;;;;1.02;1.02;;;4.30;99.90;;;;;;5015481;28;20022;-87
2022/01/28 04:50:37;;;;;;;2.40;2.30;;;4.30;99.90;;;;;;5016485;28;20112;-75
2022/01/28 05:27:44;;;;;;;9.48;2.17;;;4.30;99.90;;;;;;5015647;28;20508;-76
2022/01/28 05:30:11;;;;;;;0.75;0.73;;;4.30;99.90;;;;;;5002712;28;20021;-86
2022/01/28 05:32:36;;;;;;;1.48;1.38;;;4.30;99.90;;;;;;5008444;28;20027;-86
2022/01/28 05:35:03;;;;;;;3.67;3.38;;;4.30;99.90;;;;;;5014981;28;20397;-87
2022/01/28 05:37:28;;;;;;;2.15;2.05;;;4.30;99.90;;;;;;5015057;28;20065;-87
2022/01/28 05:39:54;;;;;;;1.52;1.45;;;4.30;99.90;;;;;;5013017;28;20054;-87
2022/01/28 05:42:20;;;;;;;1.95;1.17;;;4.30;99.90;;;;;;5015417;28;20104;-75
2022/01/28 05:44:45;;;;;;;2.85;2.38;;;4.30;99.90;;;;;;5018671;28;20030;-87
2022/01/28 05:47:16;;;;;;;4.40;1.17;;;4.30;99.90;;;;;;5010809;28;20034;-76
2022/01/28 05:49:42;;;;;;;10.68;3.75;;;4.30;99.90;;;;;;5011115;28;20018;-86
2022/01/28 05:52:09;;;;;;;1.70;1.60;;;4.30;99.90;;;;;;5015321;28;20422;-86
2022/01/28 05:54:35;;;;;;;2.08;1.88;;;4.30;99.90;;;;;;5012004;28;20033;-86
2022/01/28 05:57:00;;;;;;;2.55;2.13;;;4.30;99.90;;;;;;5011394;28;20038;-86
2022/01/28 05:59:26;;;;;;;2.72;2.53;;;4.30;99.90;;;;;;5014614;28;20025;-86
2022/01/28 06:01:52;;;;;;;3.05;2.85;;;4.30;99.90;;;;;;5014886;28;20057;-76
2022/01/28 06:04:19;;;;;;;5.68;2.58;;;4.30;99.90;;;;;;5015025;28;20022;-76
2022/01/28 06:06:45;;;;;;;3.95;3.05;;;4.40;99.90;;;;;;5010364;28;20463;-87
2022/01/28 06:09:11;;;;;;;15.13;2.95;;;4.40;99.90;;;;;;5014764;28;20030;-87
2022/01/28 06:11:38;;;;;;;4.63;3.28;;;4.40;99.90;;;;;;5014964;28;20438;-75
2022/01/28 06:14:03;;;;;;;1.90;1.77;;;4.40;99.90;;;;;;5015246;28;20026;-86
2022/01/28 06:16:32;;;;;;;2.38;1.80;;;4.40;99.90;;;;;;5010362;28;20076;-76
2022/01/28 06:18:58;;;;;;;5.25;3.22;;;4.40;99.90;;;;;;5014612;28;20018;-76
2022/01/28 06:21:24;;;;;;;1.63;1.52;;;4.30;99.90;;;;;;5014791;28;20025;-86
2022/01/28 06:23:52;;;;;;;6.68;3.50;;;4.30;99.90;;;;;;5006875;28;20080;-86
2022/01/28 06:26:18;;;;;;;2.70;2.55;;;4.40;99.90;;;;;;5014500;28;20033;-76
2022/01/28 06:28:43;;;;;;;3.17;2.50;;;4.40;99.90;;;;;;5014269;28;20022;-86
2022/01/28 06:31:10;;;;;;;3.88;2.75;;;4.40;99.90;;;;;;5014351;28;20393;-87
2022/01/28 06:33:36;;;;;;;2.83;2.63;;;4.40;99.90;;;;;;5011998;28;20038;-87
2022/01/28 06:36:03;;;;;;;1.70;1.60;;;4.30;99.90;;;;;;5012600;28;20037;-76
2022/01/28 06:38:29;;;;;;;1.48;1.38;;;4.30;99.90;;;;;;5013945;28;20206;-76
2022/01/28 06:40:55;;;;;;;6.20;2.63;;;4.30;99.90;;;;;;5011141;28;20152;-86
2022/01/28 06:43:21;;;;;;;2.30;2.13;;;4.30;99.90;;;;;;5007045;28;20493;-85
2022/01/28 06:45:46;;;;;;;1.85;1.73;;;4.30;99.90;;;;;;5012008;28;20033;-76
2022/01/28 06:48:13;;;;;;;5.70;3.75;;;4.20;99.90;;;;;;5004339;28;20105;-80
2022/01/28 06:50:42;;;;;;;3.33;3.00;;;4.10;99.90;;;;;;5013830;28;20488;-78
2022/01/28 06:53:09;;;;;;;4.85;2.90;;;4.10;99.90;;;;;;5013815;28;20022;-76
2022/01/28 06:55:35;;;;;;;1.13;1.13;;;4.10;99.90;;;;;;5010314;28;20017;-86
2022/01/28 06:58:01;;;;;;;3.80;3.13;;;4.10;99.90;;;;;;5004564;28;20081;-85
2022/01/28 07:00:27;;;;;;;1.88;1.77;;;4.10;99.90;;;;;;5013815;28;20386;-86
2022/01/28 07:02:53;;;;;;;3.30;1.80;;;4.10;99.90;;;;;;5013781;28;20092;-75
2022/01/28 07:05:19;;;;;;;5.47;2.30;;;4.10;99.90;;;;;;5013645;28;20032;-86
2022/01/28 07:07:46;;;;;;;1.83;1.73;;;4.10;99.90;;;;;;5013376;28;20030;-86
2022/01/28 07:10:12;;;;;;;2.45;2.28;;;4.10;99.90;;;;;;5015845;28;20025;-86
2022/01/28 07:12:38;;;;;;;13.13;5.32;;;4.20;99.90;;;;;;5003940;28;20099;-86
2022/01/28 07:15:04;;;;;;;5.63;3.20;;;4.10;99.90;;;;;;5013290;28;20029;-85
2022/01/28 07:17:30;;;;;;;1.98;1.83;;;4.10;99.90;;;;;;5013291;28;20029;-75
2022/01/28 07:19:55;;;;;;;2.38;2.22;;;4.10;99.90;;;;;;5012678;28;20040;-86
2022/01/28 07:22:21;;;;;;;4.53;3.50;;;4.10;99.90;;;;;;5010121;28;20099;-76
2022/01/28 07:24:46;;;;;;;4.47;3.38;;;4.10;99.90;;;;;;5002981;28;20025;-75
2022/01/28 07:27:19;;;;;;;10.35;6.00;;;4.10;99.90;;;;;;5012197;28;20400;-76
2022/01/28 07:29:47;;;;;;;4.03;2.10;;;4.10;99.90;;;;;;5009844;28;20477;-86
2022/01/28 07:32:13;;;;;;;9.43;4.10;;;4.10;99.90;;;;;;4999076;28;20030;-86
2022/01/28 07:34:39;;;;;;;7.00;5.25;;;4.10;99.90;;;;;;4996631;28;20484;-78
2022/01/28 07:37:04;;;;;;;6.65;2.55;;;4.10;99.90;;;;;;5020311;28;20045;-86
2022/01/28 07:39:30;;;;;;;1.77;1.67;;;4.10;99.90;;;;;;5009327;28;20034;-86
2022/01/28 07:41:57;;;;;;;6.80;3.17;;;4.10;99.90;;;;;;5012493;28;20022;-86
2022/01/28 07:44:23;;;;;;;4.32;3.92;;;4.10;99.90;;;;;;5011990;28;20105;-85
2022/01/28 07:46:49;;;;;;;10.80;3.97;;;4.10;99.90;;;;;;5001870;28;20088;-86
2022/01/28 07:49:15;;;;;;;5.82;1.95;;;4.10;99.90;;;;;;5011341;28;20030;-86
2022/01/28 07:51:42;;;;;;;4.32;2.70;;;4.10;99.90;;;;;;5018728;28;20051;-85
2022/01/28 07:54:08;;;;;;;2.95;1.98;;;4.10;99.90;;;;;;5006168;28;20022;-76
2022/01/28 07:56:35;;;;;;;2.90;2.65;;;4.10;99.90;;;;;;5011768;28;20048;-86
2022/01/28 07:59:00;;;;;;;6.45;3.15;;;4.10;99.90;;;;;;5012205;28;20174;-76
2022/01/28 08:01:26;;;;;;;8.93;4.50;;;4.20;99.90;;;;;;5015424;28;20022;-76
2022/01/28 08:03:52;;;;;;;4.93;3.08;;;4.20;99.90;;;;;;5016746;28;20034;-77
2022/01/28 08:06:17;;;;;;;16.08;2.30;;;4.30;99.90;;;;;;5010344;28;20025;-77
2022/01/28 08:08:43;;;;;;;4.90;3.35;;;4.30;99.90;;;;;;5005468;28;20396;-76
2022/01/28 08:11:09;;;;;;;4.07;3.70;;;4.40;99.90;;;;;;5011891;28;20033;-87
2022/01/28 08:13:34;;;;;;;5.63;3.28;;;4.40;99.90;;;;;;5011591;28;20030;-77
2022/01/28 08:16:00;;;;;;;2.72;2.53;;;4.40;99.90;;;;;;5008782;28;20026;-81
2022/01/28 08:18:26;;;;;;;5.55;4.70;;;4.40;99.90;;;;;;5010818;28;20065;-82
2022/01/28 08:20:52;;;;;;;2.47;2.28;;;4.40;99.90;;;;;;5009135;28;20537;-81
2022/01/28 08:23:18;;;;;;;4.57;3.15;;;4.40;99.90;;;;;;5000382;28;20064;-77
2022/01/28 08:25:44;;;;;;;4.30;3.60;;;4.40;99.90;;;;;;5003237;28;20019;-81
2022/01/28 08:28:10;;;;;;;2.33;2.22;;;4.50;99.90;;;;;;5005377;28;20034;-78
2022/01/28 08:30:38;;;;;;;1.23;1.13;;;4.50;99.90;;;;;;5011306;28;20508;-77
2022/01/28 08:33:05;;;;;;;3.42;2.90;;;4.50;99.90;;;;;;5011041;28;20054;-77
2022/01/28 08:35:36;;;;;;;3.15;2.90;;;4.60;99.90;;;;;;5002017;28;20080;-81
2022/01/28 08:38:02;;;;;;;18.73;3.47;;;4.60;99.90;;;;;;5011330;28;20033;-80
2022/01/28 08:40:29;;;;;;;3.08;2.80;;;4.70;99.90;;;;;;5011639;28;20030;-81
2022/01/28 08:42:55;;;;;;;5.65;3.20;;;4.80;99.90;;;;;;5008982;28;20057;-81
2022/01/28 08:45:21;;;;;;;5.07;4.53;;;4.80;99.90;;;;;;4998315;28;20027;-81
2022/01/28 08:47:48;;;;;;;5.65;4.05;;;4.80;99.90;;;;;;5008261;28;20037;-82
2022/01/28 08:50:14;;;;;;;5.07;3.42;;;4.90;99.90;;;;;;5011724;28;20088;-77
2022/01/28 08:52:40;;;;;;;19.05;4.72;;;4.90;99.90;;;;;;5011435;28;20029;-78
2022/01/28 08:55:07;;;;;;;4.20;3.85;;;4.90;99.90;;;;;;5004478;28;20512;-78
2022/01/28 08:57:33;;;;;;;3.03;2.78;;;5.00;99.90;;;;;;5011441;28;20092;-81
2022/01/28 08:59:58;;;;;;;10.18;3.53;;;5.10;99.90;;;;;;5008454;28;20061;-78
2022/01/28 09:02:24;;;;;;;4.80;3.38;;;5.20;99.90;;;;;;5029758;28;20021;-81
2022/01/28 09:04:50;;;;;;;7.03;5.63;;;5.20;99.90;;;;;;5018040;28;20026;-81
2022/01/28 09:07:18;;;;;;;5.28;2.63;;;5.30;99.90;;;;;;5005745;28;20029;-78
2022/01/28 09:09:50;;;;;;;2.67;2.47;;;5.30;99.90;;;;;;5003265;28;20042;-78
2022/01/28 09:14:54;;;;;;;5.35;3.08;;;5.40;99.90;;;;;;5010366;28;20452;-78
2022/01/28 09:17:21;;;;;;;2.50;2.30;;;5.50;99.90;;;;;;5028738;28;20216;-81
2022/01/28 09:19:48;;;;;;;1.40;1.30;;;5.50;99.90;;;;;;5014230;28;20068;-81
2022/01/28 09:22:14;;;;;;;8.38;3.92;;;5.60;99.90;;;;;;5003862;28;20105;-78
2022/01/28 09:24:43;;;;;;;4.43;2.40;;;5.60;99.90;;;;;;5009268;28;20069;-81
2022/01/28 09:27:08;;;;;;;3.95;3.40;;;5.60;99.90;;;;;;5020426;28;20080;-78
2022/01/28 09:29:34;;;;;;;2.08;1.75;;;5.70;99.90;;;;;;5010355;28;20477;-78
2022/01/28 09:32:00;;;;;;;2.72;2.63;;;5.70;99.90;;;;;;5007622;28;20033;-81
2022/01/28 09:34:27;;;;;;;27.30;5.65;;;5.70;99.90;;;;;;5023850;28;20468;-81
2022/01/28 09:36:53;;;;;;;3.15;2.80;;;5.70;99.90;;;;;;4998205;28;20049;-81
2022/01/28 09:39:20;;;;;;;1.60;1.50;;;5.70;99.90;;;;;;5000921;28;20065;-78
2022/01/28 09:41:47;;;;;;;9.18;3.03;;;5.70;99.90;;;;;;5002718;28;20036;-81
2022/01/28 09:44:17;;;;;;;3.47;2.90;;;5.80;99.90;;;;;;5012802;28;20026;-81
2022/01/28 09:46:43;;;;;;;7.43;4.75;;;5.90;99.90;;;;;;5014643;28;20021;-81
2022/01/28 09:49:11;;;;;;;3.95;3.47;;;6.00;99.90;;;;;;5012224;28;20386;-83
2022/01/28 09:51:37;;;;;;;1.27;1.27;;;6.00;99.90;;;;;;5013296;28;20455;-82
2022/01/28 09:54:03;;;;;;;6.20;2.55;;;6.10;99.90;;;;;;5013217;28;20029;-82
2022/01/28 09:56:30;;;;;;;2.70;2.53;;;6.20;99.90;;;;;;5011736;28;20045;-78
2022/01/28 09:58:55;;;;;;;1.35;1.30;;;6.30;99.90;;;;;;5012956;28;20049;-82
2022/01/28 10:01:21;;;;;;;2.67;2.45;;;6.30;99.90;;;;;;5007783;28;20033;-82
2022/01/28 10:04:05;;;;;;;1.73;1.65;;;6.40;99.90;;;;;;5014039;28;20026;-82
2022/01/28 10:06:32;;;;;;;1.48;1.38;;;6.50;99.90;;;;;;5005926;28;20037;-81
2022/01/28 10:09:01;;;;;;;1.00;1.00;;;6.60;99.90;;;;;;5001920;28;20489;-82
2022/01/28 10:11:27;;;;;;;3.53;2.30;;;6.80;99.90;;;;;;5010518;28;20026;-77
2022/01/28 10:13:56;;;;;;;5.40;3.00;;;7.00;99.90;;;;;;5013427;28;20022;-82
2022/01/28 10:16:29;;;;;;;0.80;0.77;;;7.10;99.90;;;;;;5006228;28;20049;-81
2022/01/28 10:19:06;;;;;;;3.78;3.13;;;7.20;99.90;;;;;;5020362;28;20064;-78
2022/01/28 10:21:43;;;;;;;2.22;1.92;;;7.20;99.90;;;;;;5012626;28;20022;-78
2022/01/28 10:24:10;;;;;;;3.42;3.08;;;7.30;99.90;;;;;;4999888;28;20030;-78
2022/01/28 10:26:49;;;;;;;2.40;1.75;;;7.40;99.90;;;;;;5005068;28;20030;-78
2022/01/28 10:29:25;;;;;;;1.95;1.85;;;7.60;99.90;;;;;;5006597;28;20378;-82
2022/01/28 10:31:58;;;;;;;1.20;1.13;;;7.80;99.90;;;;;;4994090;28;20037;-78
2022/01/28 10:34:27;;;;;;;;;;;8.00;99.90;;;;;;5004474;28;20057;-82
2022/01/28 10:37:08;;;;;;;0.68;0.68;;;8.20;99.90;;;;;;5008239;28;19992;-81
2022/01/28 10:39:50;;;;;;;2.78;2.10;;;8.20;99.90;;;;;;5009487;28;20029;-78
2022/01/28 10:42:33;;;;;;;2.65;1.10;;;8.30;99.90;;;;;;5018078;28;20056;-79
2022/01/28 10:45:13;;;;;;;1.75;1.65;;;8.30;99.90;;;;;;5013613;28;20096;-81
2022/01/28 10:47:40;;;;;;;3.42;1.90;;;8.40;99.90;;;;;;5013485;28;20460;-78
2022/01/28 10:50:31;;;;;;;0.90;0.60;;;8.50;99.90;;;;;;5009775;28;20382;-78
2022/01/28 10:53:11;;;;;;;4.53;1.67;;;8.80;99.90;;;;;;5001395;28;20038;-82
2022/01/28 10:55:38;;;;;;;6.45;3.58;;;9.00;99.90;;;;;;5002913;28;20046;-82
2022/01/28 10:58:12;;;;;;;0.43;0.43;;;8.90;99.90;;;;;;5010908;28;20592;-78
2022/01/28 11:00:44;;;;;;;0.80;0.80;;;9.10;99.90;;;;;;5001949;28;20030;-78
2022/01/28 11:03:12;;;;;;;2.10;0.90;;;9.20;99.90;;;;;;5007963;28;20519;-82
2022/01/28 11:05:39;;;;;;;1.40;1.30;;;9.30;99.90;;;;;;5010964;28;20451;-78
2022/01/28 11:08:07;;;;;;;2.17;1.55;;;9.40;99.90;;;;;;5002469;28;20496;-78
2022/01/28 11:10:34;;;;;;;0.55;0.52;;;9.30;99.90;;;;;;5011181;28;20014;-82
2022/01/28 11:13:01;;;;;;;1.52;1.42;;;9.20;99.90;;;;;;5010556;28;20030;-82
2022/01/28 11:15:28;;;;;;;0.55;0.55;;;9.00;99.90;;;;;;5010871;28;20054;-82
2022/01/28 11:17:55;;;;;;;8.55;1.27;;;8.90;99.90;;;;;;5012367;28;20038;-78
2022/01/28 11:20:28;;;;;;;1.17;1.10;;;8.80;99.90;;;;;;5004570;28;20015;-84
2022/01/28 11:23:16;;;;;;;1.02;1.02;;;8.90;99.90;;;;;;4999639;28;20030;-78
2022/01/28 11:25:56;;;;;;;0.52;0.52;;;9.00;99.90;;;;;;5006526;28;20372;-83
2022/01/28 11:28:42;;;;;;;6.47;1.02;;;9.00;99.90;;;;;;5002167;28;20037;-84
2022/01/28 11:31:09;;;;;;;1.50;1.40;;;9.00;99.90;;;;;;5012527;28;20104;-83
2022/01/28 11:33:51;;;;;;;7.20;1.70;;;9.10;99.90;;;;;;5012247;28;20056;-83
2022/01/28 11:36:34;;;;;;;1.48;0.77;;;9.10;99.90;;;;;;5007740;28;20061;-78
2022/01/28 11:39:08;;;;;;;;;;;8.90;99.90;;;;;;5004478;28;20164;-78
2022/01/28 11:41:34;;;;;;;;;;;8.90;99.90;;;;;;5011419;28;19906;-78
2022/01/28 11:44:00;;;;;;;1.75;1.60;;;8.80;99.90;;;;;;5010264;28;19905;-79
2022/01/28 11:46:31;;;;;;;7.35;1.83;;;8.90;99.90;;;;;;5005385;28;20026;-78
2022/01/28 11:48:57;;;;;;;0.35;0.35;;;8.90;99.90;;;;;;5007038;28;20042;-82
2022/01/28 11:51:35;;;;;;;0.90;0.90;;;8.90;99.90;;;;;;5011912;28;20825;-79
2022/01/28 11:54:04;;;;;;;0.30;0.30;;;8.80;99.90;;;;;;5011561;28;20022;-79
2022/01/28 11:56:31;;;;;;;2.95;1.75;;;8.90;99.90;;;;;;5011299;28;20026;-82
2022/01/28 11:58:58;;;;;;;1.17;0.60;;;8.90;99.90;;;;;;5006737;28;20133;-82
2022/01/28 12:01:39;;;;;;;0.52;0.52;;;9.00;99.90;;;;;;5008121;28;20041;-79
2022/01/28 12:04:23;;;;;;;1.02;0.43;;;9.10;99.90;;;;;;5003338;28;20057;-82
2022/01/28 12:07:20;;;;;;;1.77;0.57;;;9.10;99.90;;;;;;5007695;28;20101;-82
2022/01/28 12:09:49;;;;;;;0.32;0.32;;;9.20;99.90;;;;;;5009861;28;20526;-78
2022/01/28 12:12:41;;;;;;;4.95;0.82;;;9.20;99.90;;;;;;5011960;28;20157;-78
2022/01/28 12:15:16;;;;;;;0.50;0.50;;;9.30;99.90;;;;;;5012415;28;20409;-80
2022/01/28 12:17:44;;;;;;;2.78;2.58;;;9.30;99.90;;;;;;5007273;28;20029;-78
2022/01/28 12:20:16;;;;;;;0.63;0.63;;;9.40;99.90;;;;;;5011887;28;20489;-78
2022/01/28 12:23:00;;;;;;;0.57;0.40;;;9.30;99.90;;;;;;5009870;28;20033;-78
2022/01/28 12:25:41;;;;;;;0.20;0.20;;;9.20;99.90;;;;;;5009278;28;20507;-77
2022/01/28 12:28:17;;;;;;;0.90;0.90;;;9.10;99.90;;;;;;5011193;28;20029;-81
2022/01/28 12:30:46;;;;;;;0.43;0.43;;;9.10;99.90;;;;;;5011813;28;20065;-78
2022/01/28 12:33:13;;;;;;;3.28;2.05;;;9.00;99.90;;;;;;5007468;28;20080;-78
2022/01/28 12:35:41;;;;;;;3.97;2.65;;;9.10;99.90;;;;;;5011615;28;20456;-78
2022/01/28 12:38:07;;;;;;;0.10;0.10;;;9.10;99.90;;;;;;5010598;28;20029;-78
2022/01/28 12:40:40;;;;;;;0.90;0.52;;;9.10;99.90;;;;;;5009481;28;20040;-78
2022/01/28 12:43:07;;;;;;;1.23;0.93;;;9.10;99.90;;;;;;5005961;28;20375;-78
2022/01/28 12:45:34;;;;;;;2.67;1.90;;;9.10;99.90;;;;;;5010692;28;20096;-78
2022/01/28 12:47:59;;;;;;;1.77;1.33;;;9.00;99.90;;;;;;5011137;28;20030;-78
2022/01/28 12:50:28;;;;;;;2.22;1.58;;;9.00;99.90;;;;;;5007836;28;20371;-78
2022/01/28 12:52:54;;;;;;;1.20;1.13;;;9.00;99.90;;;;;;4999734;28;20034;-78
2022/01/28 12:55:20;;;;;;;1.20;1.13;;;9.10;99.90;;;;;;5007007;28;20173;-79
2022/01/28 12:57:47;;;;;;;1.13;1.02;;;9.10;99.90;;;;;;5012847;28;20068;-78
2022/01/28 13:00:14;;;;;;;0.30;0.25;;;9.10;99.90;;;;;;5014552;28;20026;-81
2022/01/28 13:02:41;;;;;;;1.40;0.65;;;9.30;99.90;;;;;;5015319;28;20390;-78
2022/01/28 13:10:26;;;;;;;1.45;0.43;;;9.50;99.90;;;;;;5014108;28;20054;-78
2022/01/28 13:13:00;;;;;;;0.73;0.73;;;9.50;99.90;;;;;;5014622;28;20040;-78
2022/01/28 13:15:26;;;;;;;1.42;1.33;;;9.50;99.90;;;;;;5013911;28;20105;-78
2022/01/28 13:17:57;;;;;;;0.00;0.00;;;9.50;99.90;;;;;;5014580;28;20132;-77
2022/01/28 13:20:25;;;;;;;1.10;1.05;;;9.50;99.90;;;;;;5011650;28;20022;-82
2022/01/28 13:22:53;;;;;;;0.38;0.32;;;9.30;99.90;;;;;;5011934;28;20029;-81
2022/01/28 13:25:23;;;;;;;2.30;0.52;;;9.40;99.90;;;;;;5014019;28;20080;-82
2022/01/28 13:27:54;;;;;;;0.35;0.35;;;9.20;99.90;;;;;;5014880;28;20029;-81
2022/01/28 13:30:20;;;;;;;0.10;0.10;;;9.30;99.90;;;;;;5014538;28;20073;-78
2022/01/28 13:32:50;;;;;;;0.55;0.32;;;9.40;99.90;;;;;;5013911;28;20112;-78
2022/01/28 13:35:20;;;;;;;2.00;1.60;;;9.40;99.90;;;;;;5013276;28;20022;-78
2022/01/28 13:37:51;;;;;;;0.20;0.20;;;9.50;99.90;;;;;;5004305;28;20485;-81
2022/01/28 13:40:29;;;;;;;0.73;0.68;;;9.70;99.90;;;;;;5007045;28;20426;-82
2022/01/28 13:43:05;;;;;;;0.35;0.35;;;10.00;99.90;;;;;;5007152;28;20033;-82
2022/01/28 13:45:44;;;;;;;0.10;0.10;;;10.10;99.90;;;;;;5010482;28;20109;-79
2022/01/28 13:48:14;;;;;;;3.13;0.57;;;9.90;99.90;;;;;;5012716;28;20041;-78
2022/01/28 13:50:45;;;;;;;2.72;1.33;;;9.70;99.90;;;;;;5012074;28;20026;-77
2022/01/28 13:55:46;;;;;;;0.32;0.32;;;9.50;99.90;;;;;;5010962;28;20501;-78
2022/01/28 13:58:12;;;;;;;0.25;0.10;;;9.50;99.90;;;;;;5013583;28;20034;-78
2022/01/28 14:00:44;;;;;;;0.75;0.75;;;9.50;99.90;;;;;;5003476;28;20493;-78
2022/01/28 14:03:18;;;;;;;0.10;0.10;;;9.60;99.90;;;;;;5007469;28;20026;-78
2022/01/28 14:05:49;;;;;;;0.73;0.57;;;9.70;99.90;;;;;;5007714;28;20517;-78
2022/01/28 14:08:15;;;;;;;0.10;0.10;;;9.70;99.90;;;;;;5011355;28;20026;-78
2022/01/28 14:10:41;;;;;;;0.17;0.17;;;9.60;99.90;;;;;;5014230;28;20017;-88
2022/01/28 14:13:20;;;;;;;0.20;0.20;;;9.60;99.90;;;;;;5014621;28;20041;-77
2022/01/28 14:16:03;;;;;;;0.10;0.10;;;9.60;99.90;;;;;;5004321;28;20026;-79
2022/01/28 14:18:28;;;;;;;0.52;0.30;;;9.50;99.90;;;;;;5014567;28;20109;-77
2022/01/28 14:20:54;;;;;;;0.35;0.28;;;9.60;99.90;;;;;;5014635;28;20054;-78
2022/01/28 14:23:20;;;;;;;1.10;1.00;;;9.70;99.90;;;;;;5014162;28;20092;-77
2022/01/28 14:25:46;;;;;;;0.35;0.30;;;9.60;99.90;;;;;;5014454;28;20029;-77
2022/01/28 14:28:24;;;;;;;6.72;0.25;;;9.70;99.90;;;;;;5013890;28;20038;-81
2022/01/28 14:31:05;;;;;;;0.30;0.30;;;9.60;99.90;;;;;;5013938;28;20017;-77
2022/01/28 14:33:31;;;;;;;0.32;0.32;;;9.60;99.90;;;;;;5002020;28;20037;-81
2022/01/28 14:35:57;;;;;;;0.80;0.75;;;9.60;99.90;;;;;;5013953;28;20389;-78
2022/01/28 14:38:22;;;;;;;0.75;0.75;;;9.70;99.90;;;;;;5013741;28;20044;-77
2022/01/28 14:40:48;;;;;;;0.03;0.03;;;9.70;99.90;;;;;;5013649;28;20021;-77
2022/01/28 14:43:14;;;;;;;0.00;0.00;;;9.70;99.90;;;;;;5013484;28;20117;-81
2022/01/28 14:45:39;;;;;;;0.50;0.50;;;9.60;99.90;;;;;;5008728;28;20026;-77
2022/01/28 14:48:05;;;;;;;2.00;1.35;;;9.60;99.90;;;;;;5009752;28;20796;-77
2022/01/28 14:50:33;;;;;;;0.08;0.08;;;9.70;99.90;;;;;;5014013;28;20116;-79